Wetterdaten: Woche 07.09.15 - 13.09.15 (KW37)
Datum Zeit Temp. A. Feuchte A. Luftdruck Regen Wind Richtung Sonnenschein ET UV Solar Taupunkt Windchill Windben
07.09.2015 00:00 9,8 C 85 % 1022,7 hPa 0,0 l/m 6,5 km/h (2 Bft) W 0,00 h 0,025 mm 0,0 UV-I 0 W/m 7,5 C 9,0 C 12,1 km/h (2 Bft)
07.09.2015 01:00 9,6 C 86 % 1022,7 hPa 0,0 l/m 6,8 km/h (2 Bft) W-SW 0,00 h 0,025 mm 0,0 UV-I 0 W/m 7,4 C 8,8 C 12,0 km/h (2 Bft)
07.09.2015 02:00 9,5 C 85 % 1022,5 hPa 0,0 l/m 5,3 km/h (1 Bft) W-SW 0,00 h 0,025 mm 0,0 UV-I 0 W/m 7,1 C 9,1 C 10,1 km/h (2 Bft)
07.09.2015 03:00 8,9 C 87 % 1022,3 hPa 0,0 l/m 4,8 km/h (1 Bft) W-SW 0,00 h 0,025 mm 0,0 UV-I 0 W/m 6,8 C 8,8 C 9,2 km/h (2 Bft)
07.09.2015 04:00 8,7 C 88 % 1022,1 hPa 0,0 l/m 4,8 km/h (1 Bft) SW 0,00 h 0,025 mm 0,0 UV-I 0 W/m 6,8 C 8,4 C 9,2 km/h (2 Bft)
07.09.2015 05:00 8,9 C 87 % 1021,7 hPa 0,0 l/m 5,1 km/h (1 Bft) W-SW 0,00 h 0,000 mm 0,0 UV-I 0 W/m 6,8 C 8,6 C 10,3 km/h (2 Bft)
07.09.2015 06:00 8,7 C 89 % 1021,5 hPa 0,0 l/m 4,8 km/h (1 Bft) W-SW 0,00 h 0,025 mm 0,0 UV-I 0 W/m 7,0 C 8,5 C 9,7 km/h (2 Bft)
07.09.2015 07:00 8,9 C 90 % 1021,4 hPa 0,2 l/m 6,1 km/h (2 Bft) W-SW 0,23 h 0,000 mm 0,0 UV-I 33 W/m 7,4 C 8,2 C 11,6 km/h (2 Bft)
07.09.2015 08:00 9,1 C 92 % 1021,6 hPa 0,0 l/m 6,6 km/h (2 Bft) W 0,83 h 0,025 mm 0,0 UV-I 69 W/m 7,9 C 8,2 C 12,8 km/h (3 Bft)
07.09.2015 09:00 9,2 C 93 % 1021,8 hPa 0,0 l/m 6,3 km/h (2 Bft) W-SW 0,88 h 0,025 mm 0,5 UV-I 65 W/m 8,1 C 8,5 C 12,6 km/h (3 Bft)
07.09.2015 10:00 9,8 C 92 % 1022,2 hPa 0,0 l/m 8,6 km/h (2 Bft) W 0,98 h 0,025 mm 0,7 UV-I 90 W/m 8,5 C 8,1 C 14,9 km/h (3 Bft)
07.09.2015 11:00 10,8 C 89 % 1022,3 hPa 0,0 l/m 9,6 km/h (2 Bft) W-SW 1,00 h 0,051 mm 1,7 UV-I 260 W/m 9,1 C 8,7 C 16,7 km/h (3 Bft)
07.09.2015 12:00 11,3 C 89 % 1022,2 hPa 0,4 l/m 11,4 km/h (2 Bft) W-SW 1,00 h 0,127 mm 1,7 UV-I 226 W/m 9,5 C 8,4 C 19,1 km/h (3 Bft)
07.09.2015 13:00 11,3 C 92 % 1022,3 hPa 0,0 l/m 9,5 km/h (2 Bft) W-SW 1,00 h 0,127 mm 1,3 UV-I 178 W/m 10,0 C 9,3 C 15,2 km/h (3 Bft)
07.09.2015 14:00 12,3 C 87 % 1022,3 hPa 0,0 l/m 11,1 km/h (2 Bft) W-SW 1,00 h 0,102 mm 1,5 UV-I 208 W/m 10,2 C 9,6 C 18,2 km/h (3 Bft)
07.09.2015 15:00 11,9 C 90 % 1022,4 hPa 0,4 l/m 7,6 km/h (2 Bft) W 0,97 h 0,127 mm 0,8 UV-I 106 W/m 10,4 C 10,3 C 12,7 km/h (3 Bft)
07.09.2015 16:00 11,3 C 94 % 1022,4 hPa 1,6 l/m 1,1 km/h (1 Bft) N 0,08 h 0,051 mm 0,5 UV-I 31 W/m 10,4 C 11,2 C 2,1 km/h (1 Bft)
07.09.2015 17:00 11,6 C 94 % 1022,6 hPa 0,4 l/m 0,6 km/h (0 Bft) N 0,52 h 0,025 mm 0,5 UV-I 55 W/m 10,7 C 11,6 C 1,8 km/h (1 Bft)
07.09.2015 18:00 11,1 C 95 % 1022,9 hPa 0,0 l/m 0,3 km/h (0 Bft) N 0,25 h 0,025 mm 0,0 UV-I 40 W/m 10,3 C 11,1 C 1,2 km/h (1 Bft)
07.09.2015 19:00 10,8 C 95 % 1023,2 hPa 0,0 l/m 0,0 km/h (0 Bft) N 0,00 h 0,025 mm 0,0 UV-I 13 W/m 10,1 C 10,8 C 0,0 km/h (0 Bft)
07.09.2015 20:00 10,5 C 96 % 1023,9 hPa 0,0 l/m 0,0 km/h (0 Bft) N 0,00 h 0,000 mm 0,0 UV-I 0 W/m 9,8 C 10,5 C 0,0 km/h (0 Bft)
07.09.2015 21:00 10,0 C 96 % 1024,5 hPa 0,0 l/m 0,0 km/h (0 Bft) N 0,00 h 0,000 mm 0,0 UV-I 0 W/m 9,4 C 10,0 C 0,0 km/h (0 Bft)
07.09.2015 22:00 8,9 C 96 % 1024,8 hPa 0,0 l/m 0,0 km/h (0 Bft) N 0,00 h 0,000 mm 0,0 UV-I 0 W/m 8,4 C 8,9 C 0,0 km/h (0 Bft)
07.09.2015 23:00 9,3 C 97 % 1025,0 hPa 0,0 l/m 0,0 km/h (0 Bft) N 0,00 h 0,000 mm 0,0 UV-I 0 W/m 8,8 C 9,3 C 0,0 km/h (0 Bft)
08.09.2015 00:00 9,1 C 98 % 1025,0 hPa 0,0 l/m 0,0 km/h (0 Bft) N 0,00 h 0,000 mm 0,0 UV-I 0 W/m 8,8 C 9,1 C 0,1 km/h (0 Bft)
08.09.2015 01:00 9,2 C 98 % 1025,0 hPa 0,0 l/m 0,0 km/h (0 Bft) N 0,00 h 0,000 mm 0,0 UV-I 0 W/m 8,9 C 9,2 C 0,0 km/h (0 Bft)
08.09.2015 02:00 9,1 C 98 % 1024,9 hPa 0,0 l/m 0,0 km/h (0 Bft) N 0,00 h 0,000 mm 0,0 UV-I 0 W/m 8,8 C 9,1 C 0,0 km/h (0 Bft)
08.09.2015 03:00 8,7 C 98 % 1024,8 hPa 0,0 l/m 0,0 km/h (0 Bft) N 0,00 h 0,000 mm 0,0 UV-I 0 W/m 8,4 C 8,7 C 0,0 km/h (0 Bft)
08.09.2015 04:00 8,4 C 98 % 1024,9 hPa 0,0 l/m 0,0 km/h (0 Bft) N 0,00 h 0,000 mm 0,0 UV-I 0 W/m 8,1 C 8,4 C 0,0 km/h (0 Bft)
08.09.2015 05:00 8,0 C 98 % 1024,8 hPa 0,0 l/m 0,0 km/h (0 Bft) N 0,00 h 0,000 mm 0,0 UV-I 0 W/m 7,7 C 8,0 C 0,0 km/h (0 Bft)
08.09.2015 06:00 7,3 C 98 % 1024,7 hPa 0,0 l/m 0,0 km/h (0 Bft) N 0,00 h 0,000 mm 0,0 UV-I 5 W/m 7,0 C 7,3 C 0,0 km/h (0 Bft)
08.09.2015 07:00 7,0 C 98 % 1025,0 hPa 0,0 l/m 0,1 km/h (0 Bft) N 0,00 h 0,000 mm 0,0 UV-I 18 W/m 6,7 C 7,0 C 0,4 km/h (0 Bft)
08.09.2015 08:00 7,0 C 98 % 1025,0 hPa 0,0 l/m 0,0 km/h (0 Bft) N 0,67 h 0,000 mm 0,5 UV-I 76 W/m 6,7 C 7,0 C 0,1 km/h (0 Bft)
08.09.2015 09:00 7,3 C 98 % 1025,0 hPa 0,0 l/m 0,0 km/h (0 Bft) N 0,85 h 0,025 mm 0,7 UV-I 101 W/m 7,1 C 7,3 C 0,1 km/h (0 Bft)
08.09.2015 10:00 8,2 C 98 % 1025,3 hPa 0,0 l/m 0,0 km/h (0 Bft) N 1,00 h 0,025 mm 0,7 UV-I 184 W/m 7,9 C 8,2 C 0,2 km/h (0 Bft)
08.09.2015 11:00 11,2 C 93 % 1025,1 hPa 0,0 l/m 0,2 km/h (0 Bft) N 1,00 h 0,102 mm 2,2 UV-I 424 W/m 10,0 C 11,2 C 0,6 km/h (0 Bft)
08.09.2015 12:00 15,3 C 67 % 1024,6 hPa 0,0 l/m 1,4 km/h (1 Bft) N 1,00 h 0,330 mm 4,5 UV-I 741 W/m 9,2 C 15,3 C 3,2 km/h (1 Bft)
08.09.2015 13:00 16,0 C 61 % 1024,3 hPa 0,0 l/m 3,8 km/h (1 Bft) NW 1,00 h 0,381 mm 3,3 UV-I 502 W/m 8,6 C 15,9 C 7,5 km/h (2 Bft)
08.09.2015 14:00 16,0 C 61 % 1023,9 hPa 0,0 l/m 2,6 km/h (1 Bft) N 1,00 h 0,279 mm 2,5 UV-I 364 W/m 8,4 C 15,9 C 5,9 km/h (2 Bft)
08.09.2015 15:00 15,9 C 60 % 1023,4 hPa 0,2 l/m 2,1 km/h (1 Bft) N 1,00 h 0,203 mm 2,3 UV-I 411 W/m 8,1 C 15,9 C 4,6 km/h (1 Bft)
08.09.2015 16:00 16,0 C 58 % 1023,1 hPa 0,0 l/m 1,4 km/h (1 Bft) N 1,00 h 0,229 mm 0,9 UV-I 187 W/m 7,8 C 16,0 C 3,3 km/h (1 Bft)
08.09.2015 17:00 15,3 C 61 % 1022,8 hPa 0,0 l/m 0,7 km/h (0 Bft) N 1,00 h 0,102 mm 0,6 UV-I 109 W/m 7,7 C 15,3 C 1,7 km/h (1 Bft)
08.09.2015 18:00 14,6 C 65 % 1022,4 hPa 0,0 l/m 0,3 km/h (0 Bft) N 0,43 h 0,076 mm 0,5 UV-I 50 W/m 8,1 C 14,6 C 1,1 km/h (1 Bft)
08.09.2015 19:00 13,4 C 74 % 1022,2 hPa 0,0 l/m 0,2 km/h (0 Bft) N 0,00 h 0,025 mm 0,0 UV-I 16 W/m 8,8 C 13,4 C 0,4 km/h (0 Bft)
08.09.2015 20:00 12,0 C 84 % 1022,4 hPa 0,0 l/m 0,0 km/h (0 Bft) N 0,00 h 0,000 mm 0,0 UV-I 0 W/m 9,4 C 12,0 C 0,0 km/h (0 Bft)
08.09.2015 21:00 11,1 C 88 % 1022,5 hPa 0,0 l/m 0,0 km/h (0 Bft) N 0,00 h 0,000 mm 0,0 UV-I 0 W/m 9,2 C 11,1 C 0,0 km/h (0 Bft)
08.09.2015 22:00 10,5 C 91 % 1022,6 hPa 0,0 l/m 0,0 km/h (0 Bft) N 0,00 h 0,000 mm 0,0 UV-I 0 W/m 9,1 C 10,5 C 0,0 km/h (0 Bft)
08.09.2015 23:00 9,2 C 93 % 1022,7 hPa 0,0 l/m 0,0 km/h (0 Bft) N 0,00 h 0,000 mm 0,0 UV-I 0 W/m 8,2 C 9,2 C 0,0 km/h (0 Bft)
09.09.2015 00:00 8,2 C 94 % 1022,6 hPa 0,0 l/m 0,0 km/h (0 Bft) N 0,00 h 0,000 mm 0,0 UV-I 0 W/m 7,3 C 8,2 C 0,0 km/h (0 Bft)
09.09.2015 01:00 7,7 C 95 % 1022,5 hPa 0,0 l/m 0,0 km/h (0 Bft) N 0,00 h 0,000 mm 0,0 UV-I 0 W/m 6,9 C 7,7 C 0,0 km/h (0 Bft)
09.09.2015 02:00 7,9 C 95 % 1022,2 hPa 0,0 l/m 0,0 km/h (0 Bft) N 0,00 h 0,000 mm 0,0 UV-I 0 W/m 7,2 C 7,9 C 0,0 km/h (0 Bft)
09.09.2015 03:00 7,9 C 95 % 1022,0 hPa 0,0 l/m 0,0 km/h (0 Bft) N 0,00 h 0,000 mm 0,0 UV-I 0 W/m 7,1 C 7,9 C 0,0 km/h (0 Bft)
09.09.2015 04:00 7,7 C 95 % 1021,6 hPa 0,0 l/m 0,0 km/h (0 Bft) N 0,00 h 0,000 mm 0,0 UV-I 0 W/m 7,0 C 7,7 C 0,0 km/h (0 Bft)
09.09.2015 05:00 8,0 C 96 % 1021,4 hPa 0,0 l/m 0,0 km/h (0 Bft) N 0,00 h 0,000 mm 0,0 UV-I 0 W/m 7,4 C 8,0 C 0,0 km/h (0 Bft)
09.09.2015 06:00 8,0 C 96 % 1021,4 hPa 0,0 l/m 0,0 km/h (0 Bft) N 0,00 h 0,000 mm 0,0 UV-I 7 W/m 7,4 C 8,0 C 0,0 km/h (0 Bft)
09.09.2015 07:00 8,5 C 95 % 1021,5 hPa 0,0 l/m 0,0 km/h (0 Bft) N 0,00 h 0,000 mm 0,0 UV-I 31 W/m 7,8 C 8,5 C 0,1 km/h (0 Bft)
09.09.2015 08:00 10,1 C 93 % 1021,7 hPa 0,0 l/m 1,5 km/h (1 Bft) N 1,00 h 0,025 mm 0,7 UV-I 198 W/m 9,1 C 10,1 C 3,3 km/h (1 Bft)
09.09.2015 09:00 12,1 C 87 % 1021,9 hPa 0,0 l/m 4,2 km/h (1 Bft) N 1,00 h 0,076 mm 0,9 UV-I 271 W/m 10,0 C 11,9 C 9,6 km/h (2 Bft)
09.09.2015 10:00 13,1 C 82 % 1022,2 hPa 0,0 l/m 6,7 km/h (2 Bft) N-NO 1,00 h 0,127 mm 1,4 UV-I 231 W/m 10,2 C 12,2 C 11,9 km/h (2 Bft)
09.09.2015 11:00 13,8 C 78 % 1022,4 hPa 0,0 l/m 5,6 km/h (2 Bft) N-NO 1,00 h 0,127 mm 2,0 UV-I 310 W/m 9,9 C 13,1 C 9,7 km/h (2 Bft)
09.09.2015 12:00 16,4 C 63 % 1022,2 hPa 0,0 l/m 7,1 km/h (2 Bft) N 1,00 h 0,178 mm 3,5 UV-I 612 W/m 9,2 C 15,4 C 12,4 km/h (2 Bft)
09.09.2015 13:00 15,9 C 61 % 1022,2 hPa 0,0 l/m 9,5 km/h (2 Bft) N-NO 1,00 h 0,356 mm 3,1 UV-I 474 W/m 8,5 C 14,2 C 14,9 km/h (3 Bft)
09.09.2015 14:00 17,2 C 52 % 1021,9 hPa 0,0 l/m 7,9 km/h (2 Bft) N-NO 1,00 h 0,305 mm 3,4 UV-I 604 W/m 7,3 C 16,2 C 14,1 km/h (3 Bft)
09.09.2015 15:00 17,0 C 47 % 1021,8 hPa 0,0 l/m 6,1 km/h (2 Bft) N-NO 1,00 h 0,381 mm 2,3 UV-I 433 W/m 5,5 C 16,1 C 11,1 km/h (2 Bft)
09.09.2015 16:00 16,8 C 47 % 1021,7 hPa 0,0 l/m 4,4 km/h (1 Bft) O-NO 1,00 h 0,279 mm 1,5 UV-I 391 W/m 5,3 C 16,3 C 9,1 km/h (2 Bft)
09.09.2015 17:00 15,6 C 51 % 1021,8 hPa 0,0 l/m 3,1 km/h (1 Bft) N 1,00 h 0,229 mm 0,8 UV-I 144 W/m 5,6 C 15,3 C 7,3 km/h (2 Bft)
09.09.2015 18:00 13,9 C 60 % 1021,8 hPa 0,0 l/m 3,1 km/h (1 Bft) N-NO 0,45 h 0,102 mm 0,0 UV-I 46 W/m 6,2 C 13,8 C 6,4 km/h (2 Bft)
09.09.2015 19:00 12,5 C 65 % 1022,0 hPa 0,0 l/m 1,0 km/h (0 Bft) N 0,00 h 0,051 mm 0,0 UV-I 10 W/m 6,2 C 12,5 C 2,0 km/h (1 Bft)
09.09.2015 20:00 10,8 C 73 % 1022,6 hPa 0,0 l/m 1,5 km/h (1 Bft) N-NO 0,00 h 0,025 mm 0,0 UV-I 0 W/m 6,2 C 10,8 C 4,0 km/h (1 Bft)
09.09.2015 21:00 9,6 C 79 % 1023,0 hPa 0,0 l/m 0,6 km/h (0 Bft) N 0,00 h 0,025 mm 0,0 UV-I 0 W/m 6,1 C 9,6 C 1,8 km/h (1 Bft)
09.09.2015 22:00 8,8 C 83 % 1022,9 hPa 0,0 l/m 1,4 km/h (1 Bft) N-NO 0,00 h 0,025 mm 0,0 UV-I 0 W/m 6,0 C 8,8 C 3,0 km/h (1 Bft)
09.09.2015 23:00 7,8 C 86 % 1023,0 hPa 0,0 l/m 0,5 km/h (0 Bft) N 0,00 h 0,025 mm 0,0 UV-I 0 W/m 5,7 C 7,8 C 1,2 km/h (1 Bft)
10.09.2015 00:00 6,5 C 91 % 1023,2 hPa 0,0 l/m 0,0 km/h (0 Bft) N 0,00 h 0,000 mm 0,0 UV-I 0 W/m 5,1 C 6,5 C 0,0 km/h (0 Bft)
10.09.2015 01:00 5,5 C 93 % 1023,0 hPa 0,0 l/m 0,0 km/h (0 Bft) N 0,00 h 0,000 mm 0,0 UV-I 0 W/m 4,5 C 5,5 C 0,2 km/h (0 Bft)
10.09.2015 02:00 5,5 C 93 % 1022,8 hPa 0,0 l/m 1,1 km/h (0 Bft) N 0,00 h 0,000 mm 0,0 UV-I 0 W/m 4,4 C 5,5 C 1,8 km/h (1 Bft)
10.09.2015 03:00 5,4 C 93 % 1022,7 hPa 0,0 l/m 1,0 km/h (0 Bft) N 0,00 h 0,000 mm 0,0 UV-I 0 W/m 4,3 C 5,4 C 1,8 km/h (1 Bft)
10.09.2015 04:00 4,9 C 94 % 1022,7 hPa 0,0 l/m 1,7 km/h (1 Bft) N 0,00 h 0,000 mm 0,0 UV-I 0 W/m 4,0 C 4,9 C 3,0 km/h (1 Bft)
10.09.2015 05:00 4,6 C 94 % 1022,5 hPa 0,0 l/m 1,3 km/h (1 Bft) N 0,00 h 0,000 mm 0,0 UV-I 0 W/m 3,8 C 4,6 C 2,0 km/h (1 Bft)
10.09.2015 06:00 4,2 C 94 % 1022,4 hPa 0,0 l/m 0,7 km/h (0 Bft) N 0,00 h 0,000 mm 0,0 UV-I 7 W/m 3,4 C 4,2 C 1,2 km/h (1 Bft)
10.09.2015 07:00 4,6 C 95 % 1022,7 hPa 0,0 l/m 0,7 km/h (0 Bft) N 0,00 h 0,000 mm 0,0 UV-I 23 W/m 3,8 C 4,6 C 1,0 km/h (0 Bft)
10.09.2015 08:00 8,6 C 89 % 1022,6 hPa 0,0 l/m 0,0 km/h (0 Bft) N 0,98 h 0,000 mm 0,7 UV-I 245 W/m 7,0 C 8,6 C 0,0 km/h (0 Bft)
10.09.2015 09:00 12,5 C 78 % 1022,5 hPa 0,0 l/m 1,6 km/h (1 Bft) N 1,00 h 0,102 mm 1,4 UV-I 419 W/m 8,7 C 12,3 C 4,4 km/h (1 Bft)
10.09.2015 10:00 13,7 C 71 % 1022,4 hPa 0,0 l/m 2,6 km/h (1 Bft) O-NO 1,00 h 0,203 mm 1,8 UV-I 346 W/m 8,5 C 13,6 C 8,9 km/h (2 Bft)
10.09.2015 11:00 13,9 C 68 % 1022,3 hPa 0,0 l/m 3,2 km/h (1 Bft) O-NO 1,00 h 0,203 mm 1,7 UV-I 254 W/m 8,0 C 13,6 C 7,5 km/h (2 Bft)
10.09.2015 12:00 14,1 C 65 % 1021,9 hPa 0,0 l/m 3,1 km/h (1 Bft) O 1,00 h 0,152 mm 1,3 UV-I 137 W/m 7,7 C 13,7 C 7,6 km/h (2 Bft)
10.09.2015 13:00 13,5 C 69 % 1021,8 hPa 0,0 l/m 3,3 km/h (1 Bft) O-NO 0,82 h 0,076 mm 1,2 UV-I 102 W/m 7,9 C 13,2 C 7,7 km/h (2 Bft)
10.09.2015 14:00 14,2 C 67 % 1021,5 hPa 0,0 l/m 3,3 km/h (1 Bft) O-NO 1,00 h 0,076 mm 1,2 UV-I 180 W/m 8,2 C 14,0 C 9,1 km/h (2 Bft)
10.09.2015 15:00 14,8 C 65 % 1020,9 hPa 0,0 l/m 2,1 km/h (1 Bft) N 1,00 h 0,102 mm 1,4 UV-I 191 W/m 8,2 C 14,6 C 5,5 km/h (2 Bft)
10.09.2015 16:00 15,4 C 61 % 1020,3 hPa 0,0 l/m 2,8 km/h (1 Bft) O-NO 1,00 h 0,102 mm 1,3 UV-I 198 W/m 7,8 C 15,3 C 7,7 km/h (2 Bft)
10.09.2015 17:00 14,2 C 67 % 1020,2 hPa 0,0 l/m 5,2 km/h (1 Bft) N 1,00 h 0,127 mm 0,6 UV-I 142 W/m 8,2 C 13,2 C 11,0 km/h (2 Bft)
10.09.2015 18:00 12,2 C 80 % 1020,7 hPa 0,2 l/m 8,6 km/h (2 Bft) O 0,62 h 0,102 mm 0,0 UV-I 76 W/m 8,8 C 10,6 C 16,7 km/h (3 Bft)
10.09.2015 19:00 10,2 C 90 % 1020,4 hPa 0,0 l/m 2,8 km/h (1 Bft) O-NO 0,00 h 0,051 mm 0,0 UV-I 5 W/m 8,7 C 10,0 C 7,0 km/h (2 Bft)
10.09.2015 20:00 9,2 C 92 % 1020,4 hPa 0,0 l/m 2,0 km/h (1 Bft) N-NO 0,00 h 0,000 mm 0,0 UV-I 0 W/m 8,0 C 9,2 C 3,8 km/h (1 Bft)
10.09.2015 21:00 8,8 C 92 % 1020,7 hPa 0,0 l/m 0,9 km/h (0 Bft) N 0,00 h 0,000 mm 0,0 UV-I 0 W/m 7,6 C 8,8 C 2,3 km/h (1 Bft)
10.09.2015 22:00 8,8 C 92 % 1020,5 hPa 0,0 l/m 2,0 km/h (1 Bft) O-NO 0,00 h 0,000 mm 0,0 UV-I 0 W/m 7,6 C 8,8 C 4,6 km/h (1 Bft)
10.09.2015 23:00 8,3 C 92 % 1020,3 hPa 0,0 l/m 2,3 km/h (1 Bft) O-NO 0,00 h 0,000 mm 0,0 UV-I 0 W/m 7,1 C 8,3 C 5,0 km/h (1 Bft)
11.09.2015 00:00 8,0 C 93 % 1020,2 hPa 0,0 l/m 1,8 km/h (1 Bft) N-NO 0,00 h 0,000 mm 0,0 UV-I 0 W/m 6,9 C 8,0 C 3,6 km/h (1 Bft)
11.09.2015 01:00 7,5 C 93 % 1019,8 hPa 0,0 l/m 0,4 km/h (0 Bft) N 0,00 h 0,000 mm 0,0 UV-I 0 W/m 6,4 C 7,5 C 1,3 km/h (1 Bft)
11.09.2015 02:00 6,5 C 94 % 1019,5 hPa 0,0 l/m 0,6 km/h (0 Bft) N 0,00 h 0,000 mm 0,0 UV-I 0 W/m 5,6 C 6,5 C 1,5 km/h (1 Bft)
11.09.2015 03:00 6,1 C 94 % 1019,3 hPa 0,0 l/m 1,7 km/h (1 Bft) N-NO 0,00 h 0,000 mm 0,0 UV-I 0 W/m 5,2 C 6,1 C 3,0 km/h (1 Bft)
11.09.2015 04:00 5,9 C 95 % 1018,9 hPa 0,0 l/m 2,4 km/h (1 Bft) N-NO 0,00 h 0,000 mm 0,0 UV-I 0 W/m 5,2 C 5,9 C 4,3 km/h (1 Bft)
11.09.2015 05:00 5,8 C 94 % 1018,8 hPa 0,0 l/m 1,7 km/h (1 Bft) NO 0,00 h 0,000 mm 0,0 UV-I 0 W/m 5,0 C 5,8 C 4,7 km/h (1 Bft)
11.09.2015 06:00 6,0 C 95 % 1018,9 hPa 0,2 l/m 2,3 km/h (1 Bft) O-NO 0,00 h 0,000 mm 0,0 UV-I 7 W/m 5,3 C 6,0 C 5,5 km/h (2 Bft)
11.09.2015 07:00 5,5 C 95 % 1019,0 hPa 0,0 l/m 0,4 km/h (0 Bft) N 0,07 h 0,000 mm 0,0 UV-I 30 W/m 4,8 C 5,5 C 1,2 km/h (1 Bft)
11.09.2015 08:00 8,7 C 95 % 1019,2 hPa 0,0 l/m 1,0 km/h (0 Bft) N 0,57 h 0,025 mm 0,5 UV-I 52 W/m 7,9 C 8,6 C 3,7 km/h (1 Bft)
11.09.2015 09:00 9,7 C 92 % 1019,3 hPa 0,0 l/m 1,3 km/h (1 Bft) N 1,00 h 0,025 mm 0,8 UV-I 144 W/m 8,5 C 9,6 C 4,5 km/h (1 Bft)
11.09.2015 10:00 10,4 C 90 % 1019,7 hPa 0,0 l/m 2,1 km/h (1 Bft) O 1,00 h 0,076 mm 1,3 UV-I 210 W/m 8,8 C 10,3 C 6,9 km/h (2 Bft)
11.09.2015 11:00 10,9 C 87 % 1019,7 hPa 0,0 l/m 2,1 km/h (1 Bft) O-SO 1,00 h 0,102 mm 1,5 UV-I 221 W/m 8,9 C 10,7 C 6,5 km/h (2 Bft)
11.09.2015 12:00 12,2 C 83 % 1019,4 hPa 0,0 l/m 1,9 km/h (1 Bft) SO 1,00 h 0,102 mm 2,8 UV-I 438 W/m 9,5 C 12,1 C 6,1 km/h (2 Bft)
11.09.2015 13:00 15,2 C 74 % 1019,0 hPa 0,0 l/m 2,4 km/h (1 Bft) O-NO 1,00 h 0,229 mm 3,7 UV-I 738 W/m 10,7 C 15,1 C 7,4 km/h (2 Bft)
11.09.2015 14:00 16,3 C 69 % 1018,4 hPa 0,0 l/m 2,5 km/h (1 Bft) SO 1,00 h 0,356 mm 3,3 UV-I 621 W/m 10,5 C 16,2 C 6,7 km/h (2 Bft)
11.09.2015 15:00 17,0 C 67 % 1018,1 hPa 0,0 l/m 2,1 km/h (1 Bft) O-NO 1,00 h 0,330 mm 2,4 UV-I 502 W/m 10,8 C 16,9 C 6,5 km/h (2 Bft)
11.09.2015 16:00 17,3 C 66 % 1017,9 hPa 0,0 l/m 2,3 km/h (1 Bft) O-NO 1,00 h 0,279 mm 1,5 UV-I 344 W/m 10,8 C 17,2 C 6,7 km/h (2 Bft)
11.09.2015 17:00 16,9 C 67 % 1017,8 hPa 0,0 l/m 0,8 km/h (0 Bft) N 1,00 h 0,203 mm 0,7 UV-I 125 W/m 10,7 C 16,9 C 3,2 km/h (1 Bft)
11.09.2015 18:00 16,3 C 70 % 1017,7 hPa 0,0 l/m 0,0 km/h (0 Bft) N 0,53 h 0,076 mm 0,0 UV-I 49 W/m 10,8 C 16,3 C 0,3 km/h (0 Bft)
11.09.2015 19:00 15,3 C 73 % 1017,7 hPa 0,0 l/m 0,0 km/h (0 Bft) N 0,00 h 0,025 mm 0,0 UV-I 10 W/m 10,4 C 15,3 C 0,0 km/h (0 Bft)
11.09.2015 20:00 13,7 C 79 % 1017,9 hPa 0,0 l/m 0,2 km/h (0 Bft) N 0,00 h 0,000 mm 0,0 UV-I 0 W/m 10,0 C 13,7 C 0,7 km/h (0 Bft)
11.09.2015 21:00 12,9 C 84 % 1018,2 hPa 0,0 l/m 2,3 km/h (1 Bft) O-NO 0,00 h 0,025 mm 0,0 UV-I 0 W/m 10,2 C 12,8 C 5,1 km/h (1 Bft)
11.09.2015 22:00 12,5 C 85 % 1018,3 hPa 0,0 l/m 0,8 km/h (0 Bft) N 0,00 h 0,025 mm 0,0 UV-I 0 W/m 10,1 C 12,5 C 1,6 km/h (1 Bft)
11.09.2015 23:00 10,8 C 89 % 1018,2 hPa 0,0 l/m 0,0 km/h (0 Bft) N 0,00 h 0,000 mm 0,0 UV-I 0 W/m 9,0 C 10,8 C 0,0 km/h (0 Bft)
12.09.2015 00:00 9,2 C 92 % 1018,1 hPa 0,0 l/m 0,0 km/h (0 Bft) N 0,00 h 0,000 mm 0,0 UV-I 0 W/m 8,0 C 9,2 C 0,0 km/h (0 Bft)
12.09.2015 01:00 8,6 C 94 % 1018,0 hPa 0,0 l/m 0,0 km/h (0 Bft) N 0,00 h 0,000 mm 0,0 UV-I 0 W/m 7,7 C 8,6 C 0,0 km/h (0 Bft)
12.09.2015 02:00 8,2 C 94 % 1017,9 hPa 0,0 l/m 0,1 km/h (0 Bft) N 0,00 h 0,000 mm 0,0 UV-I 0 W/m 7,4 C 8,2 C 1,1 km/h (1 Bft)
12.09.2015 03:00 8,7 C 94 % 1017,8 hPa 0,0 l/m 0,0 km/h (0 Bft) N 0,00 h 0,000 mm 0,0 UV-I 0 W/m 7,8 C 8,7 C 0,3 km/h (0 Bft)
12.09.2015 04:00 8,2 C 95 % 1017,9 hPa 0,0 l/m 0,0 km/h (0 Bft) N 0,00 h 0,000 mm 0,0 UV-I 0 W/m 7,4 C 8,2 C 0,1 km/h (0 Bft)
12.09.2015 05:00 7,7 C 95 % 1017,9 hPa 0,0 l/m 0,0 km/h (0 Bft) N 0,00 h 0,000 mm 0,0 UV-I 0 W/m 6,9 C 7,7 C 0,2 km/h (0 Bft)
12.09.2015 06:00 6,8 C 95 % 1018,0 hPa 0,0 l/m 0,1 km/h (0 Bft) N 0,00 h 0,000 mm 0,0 UV-I 8 W/m 6,0 C 6,8 C 1,2 km/h (1 Bft)
12.09.2015 07:00 7,5 C 95 % 1018,4 hPa 0,0 l/m 0,0 km/h (0 Bft) N 0,58 h 0,000 mm 0,0 UV-I 48 W/m 6,9 C 7,5 C 0,0 km/h (0 Bft)
12.09.2015 08:00 9,5 C 94 % 1018,6 hPa 0,0 l/m 0,0 km/h (0 Bft) N 1,00 h 0,025 mm 0,7 UV-I 146 W/m 8,6 C 9,5 C 0,0 km/h (0 Bft)
12.09.2015 09:00 14,1 C 86 % 1018,5 hPa 0,0 l/m 0,7 km/h (0 Bft) N 1,00 h 0,051 mm 1,3 UV-I 346 W/m 11,7 C 14,1 C 1,4 km/h (1 Bft)
12.09.2015 10:00 16,3 C 76 % 1018,4 hPa 0,0 l/m 0,1 km/h (0 Bft) N 1,00 h 0,229 mm 2,0 UV-I 366 W/m 12,1 C 16,3 C 0,4 km/h (0 Bft)
12.09.2015 11:00 17,5 C 72 % 1018,3 hPa 0,0 l/m 2,8 km/h (1 Bft) N 1,00 h 0,203 mm 2,5 UV-I 323 W/m 12,4 C 17,4 C 5,5 km/h (2 Bft)
12.09.2015 12:00 19,0 C 65 % 1017,9 hPa 0,0 l/m 5,1 km/h (1 Bft) S 1,00 h 0,203 mm 3,5 UV-I 589 W/m 12,3 C 18,7 C 9,2 km/h (2 Bft)
12.09.2015 13:00 20,3 C 61 % 1017,8 hPa 0,0 l/m 5,8 km/h (2 Bft) S 1,00 h 0,330 mm 4,1 UV-I 647 W/m 12,4 C 20,0 C 10,6 km/h (2 Bft)
12.09.2015 14:00 21,6 C 55 % 1017,2 hPa 0,0 l/m 6,6 km/h (2 Bft) S 1,00 h 0,406 mm 3,4 UV-I 576 W/m 12,2 C 21,1 C 11,6 km/h (2 Bft)
12.09.2015 15:00 21,4 C 55 % 1016,7 hPa 0,0 l/m 5,5 km/h (2 Bft) S-SO 1,00 h 0,381 mm 2,3 UV-I 424 W/m 12,0 C 21,2 C 9,6 km/h (2 Bft)
12.09.2015 16:00 21,4 C 54 % 1016,5 hPa 0,0 l/m 3,6 km/h (1 Bft) S-SO 1,00 h 0,279 mm 1,4 UV-I 290 W/m 11,7 C 21,3 C 7,0 km/h (2 Bft)
12.09.2015 17:00 21,5 C 54 % 1016,1 hPa 0,0 l/m 2,9 km/h (1 Bft) S-SO 0,97 h 0,203 mm 0,8 UV-I 174 W/m 11,7 C 21,5 C 6,4 km/h (2 Bft)
12.09.2015 18:00 20,9 C 56 % 1015,8 hPa 0,0 l/m 0,5 km/h (0 Bft) N 0,42 h 0,127 mm 0,0 UV-I 39 W/m 11,7 C 20,9 C 1,9 km/h (1 Bft)
12.09.2015 19:00 18,7 C 68 % 1015,6 hPa 0,0 l/m 0,1 km/h (0 Bft) N 0,00 h 0,025 mm 0,0 UV-I 9 W/m 12,7 C 18,7 C 0,5 km/h (0 Bft)
12.09.2015 20:00 18,0 C 70 % 1015,7 hPa 0,0 l/m 0,2 km/h (0 Bft) N 0,00 h 0,000 mm 0,0 UV-I 0 W/m 12,5 C 18,0 C 1,4 km/h (1 Bft)
12.09.2015 21:00 17,6 C 71 % 1015,8 hPa 0,0 l/m 0,5 km/h (0 Bft) N 0,00 h 0,025 mm 0,0 UV-I 0 W/m 12,2 C 17,6 C 2,1 km/h (1 Bft)
12.09.2015 22:00 16,4 C 74 % 1015,2 hPa 0,0 l/m 1,8 km/h (1 Bft) O 0,00 h 0,025 mm 0,0 UV-I 0 W/m 11,7 C 16,4 C 5,5 km/h (2 Bft)
12.09.2015 23:00 16,1 C 76 % 1015,3 hPa 0,0 l/m 1,6 km/h (1 Bft) N 0,00 h 0,025 mm 0,0 UV-I 0 W/m 11,7 C 16,1 C 4,5 km/h (1 Bft)
13.09.2015 00:00 14,9 C 81 % 1015,3 hPa 0,0 l/m 0,1 km/h (0 Bft) N 0,00 h 0,025 mm 0,0 UV-I 0 W/m 11,6 C 14,9 C 0,6 km/h (0 Bft)
13.09.2015 01:00 13,9 C 86 % 1015,2 hPa 0,0 l/m 0,1 km/h (0 Bft) N 0,00 h 0,025 mm 0,0 UV-I 0 W/m 11,6 C 13,9 C 0,5 km/h (0 Bft)
13.09.2015 02:00 13,3 C 88 % 1014,8 hPa 0,0 l/m 0,1 km/h (0 Bft) N 0,00 h 0,000 mm 0,0 UV-I 0 W/m 11,4 C 13,3 C 1,1 km/h (1 Bft)
13.09.2015 03:00 13,2 C 89 % 1014,9 hPa 0,0 l/m 0,2 km/h (0 Bft) N 0,00 h 0,000 mm 0,0 UV-I 0 W/m 11,4 C 13,2 C 0,7 km/h (0 Bft)
13.09.2015 04:00 12,6 C 91 % 1014,5 hPa 0,0 l/m 0,0 km/h (0 Bft) N 0,00 h 0,000 mm 0,0 UV-I 0 W/m 11,2 C 12,6 C 0,3 km/h (0 Bft)
13.09.2015 05:00 12,5 C 91 % 1014,0 hPa 0,0 l/m 0,3 km/h (0 Bft) N 0,00 h 0,000 mm 0,0 UV-I 0 W/m 11,2 C 12,5 C 1,1 km/h (0 Bft)
13.09.2015 06:00 11,6 C 93 % 1014,3 hPa 0,0 l/m 0,0 km/h (0 Bft) N 0,00 h 0,000 mm 0,0 UV-I 8 W/m 10,5 C 11,6 C 0,0 km/h (0 Bft)
13.09.2015 07:00 11,3 C 95 % 1014,3 hPa 0,0 l/m 0,3 km/h (0 Bft) N 0,32 h 0,000 mm 0,0 UV-I 40 W/m 10,5 C 11,3 C 0,7 km/h (0 Bft)
13.09.2015 08:00 14,3 C 88 % 1013,8 hPa 0,0 l/m 1,3 km/h (1 Bft) O 1,00 h 0,025 mm 0,7 UV-I 185 W/m 12,4 C 14,3 C 3,7 km/h (1 Bft)
13.09.2015 09:00 16,7 C 80 % 1013,5 hPa 0,0 l/m 2,4 km/h (1 Bft) O-SO 1,00 h 0,076 mm 1,1 UV-I 348 W/m 13,2 C 16,7 C 5,8 km/h (2 Bft)
13.09.2015 10:00 18,5 C 75 % 1013,1 hPa 0,0 l/m 1,8 km/h (1 Bft) O-SO 1,00 h 0,178 mm 2,1 UV-I 480 W/m 13,9 C 18,5 C 4,6 km/h (1 Bft)
13.09.2015 11:00 20,8 C 75 % 1012,2 hPa 0,0 l/m 2,1 km/h (1 Bft) O-SO 1,00 h 0,305 mm 2,3 UV-I 613 W/m 16,2 C 20,7 C 6,1 km/h (2 Bft)
13.09.2015 12:00 22,1 C 75 % 1011,2 hPa 0,0 l/m 5,9 km/h (2 Bft) SO 1,00 h 0,356 mm 2,3 UV-I 657 W/m 17,4 C 21,8 C 11,7 km/h (2 Bft)
13.09.2015 13:00 22,9 C 75 % 1010,6 hPa 0,0 l/m 5,3 km/h (1 Bft) SO 1,00 h 0,406 mm 2,3 UV-I 645 W/m 18,3 C 22,6 C 10,8 km/h (2 Bft)
13.09.2015 14:00 23,5 C 61 % 1010,0 hPa 0,0 l/m 5,6 km/h (2 Bft) O-SO 1,00 h 0,406 mm 2,9 UV-I 559 W/m 15,2 C 23,2 C 12,4 km/h (2 Bft)
13.09.2015 15:00 23,6 C 51 % 1009,5 hPa 0,0 l/m 5,9 km/h (2 Bft) O-SO 1,00 h 0,381 mm 2,6 UV-I 479 W/m 12,8 C 23,4 C 13,0 km/h (3 Bft)
13.09.2015 16:00 23,2 C 50 % 1008,8 hPa 0,0 l/m 3,3 km/h (1 Bft) SO 1,00 h 0,330 mm 1,3 UV-I 234 W/m 12,2 C 23,2 C 8,4 km/h (2 Bft)
13.09.2015 17:00 23,0 C 50 % 1008,0 hPa 0,0 l/m 1,3 km/h (1 Bft) N 0,90 h 0,178 mm 0,8 UV-I 119 W/m 11,8 C 23,0 C 4,2 km/h (1 Bft)
13.09.2015 18:00 21,2 C 56 % 1007,6 hPa 0,0 l/m 0,3 km/h (0 Bft) N 0,10 h 0,102 mm 0,0 UV-I 34 W/m 11,9 C 21,2 C 1,4 km/h (1 Bft)
13.09.2015 19:00 19,6 C 60 % 1007,6 hPa 0,0 l/m 0,4 km/h (0 Bft) N 0,00 h 0,025 mm 0,0 UV-I 10 W/m 11,7 C 19,6 C 1,4 km/h (1 Bft)
13.09.2015 20:00 18,4 C 65 % 1007,7 hPa 0,0 l/m 0,1 km/h (0 Bft) N 0,00 h 0,025 mm 0,0 UV-I 0 W/m 11,8 C 18,4 C 0,8 km/h (0 Bft)
13.09.2015 21:00 17,8 C 71 % 1007,4 hPa 0,0 l/m 0,2 km/h (0 Bft) N 0,00 h 0,025 mm 0,0 UV-I 0 W/m 12,4 C 17,8 C 0,7 km/h (0 Bft)
13.09.2015 22:00 18,0 C 72 % 1006,9 hPa 0,0 l/m 0,7 km/h (0 Bft) N 0,00 h 0,025 mm 0,0 UV-I 0 W/m 13,0 C 18,0 C 2,9 km/h (1 Bft)
13.09.2015 23:00 17,8 C 74 % 1006,6 hPa 0,0 l/m 0,9 km/h (0 Bft) N 0,00 h 0,025 mm 0,0 UV-I 0 W/m 13,2 C 17,8 C 3,5 km/h (1 Bft)
Min-Datum _ 10.09.15 09.09.15 13.09.15 - 07.09.15 - - - - - 10.09.15 10.09.15 07.09.15
_ Min-Zeit 06:55 15:46 23:37 - 03:57 - - - - - 06:55 06:55 15:54
Minimum _ 3,4 C 42 % 1006,4 hPa - 0,0 km/h (0 Bft) - - - - - 2,5 C 3,4 C 0,0 km/h (0 Bft)
Max-Datum _ 13.09.15 08.09.15 08.09.15 07.09.15 07.09.15 - 08.09.15 12.09.15 08.09.15 08.09.15 13.09.15 13.09.15 07.09.15
_ Max-Zeit 15:33 00:11 10:44 16:09 12:02 - 15:45 14:00 12:49 14:15 13:58 15:34 12:02
Maximum _ 23,9 C 98 % 1025,4 hPa 1,6 l/m 22,5 km/h
W-SW (4 Bft)
- 0,03 h 0,406 mm 5,0 UV-I 976 W/m 19,1 C 23,9 C 32,2 km/h
W-SW (5 Bft)
Durchschnitt _ 12,3 C 82 % 1019,7 hPa #3,6 l/m 2,1 km/h (1 Bft) N #71:01 h #13,627 mm 1,7 UV-I 232 W/m 8,9 C 12,1 C 4,5 km/h (1 Bft)